Time;durP1;ratioP1;P1;durP2;ratioP2;P2;SDS_P1;SDS_P2;PMS_P1;PMS_P2;Temp;Humidity;BMP_temperature;BMP_pressure;BME280_temperature;BME280_humidity;BME280_pressure;Samples;Min_cycle;Max_cycle;Signal;HPM_P1;HPM_P2
2023/12/08 00:00:54;;;;;;;5.35;3.92;;;21.50;99.90;;;;;;4974489;28;20046;-48
2023/12/08 00:03:20;;;;;;;5.85;4.13;;;21.50;99.90;;;;;;4974763;28;20371;-48
2023/12/08 00:05:46;;;;;;;5.15;4.40;;;21.50;99.90;;;;;;4973668;28;20034;-47
2023/12/08 00:08:12;;;;;;;4.90;4.20;;;21.50;99.90;;;;;;4974466;28;20126;-47
2023/12/08 00:10:37;;;;;;;6.15;3.92;;;21.50;99.90;;;;;;4974309;28;20027;-47
2023/12/08 00:13:03;;;;;;;6.50;4.35;;;21.50;99.90;;;;;;4974260;28;20031;-47
2023/12/08 00:15:29;;;;;;;6.18;3.92;;;21.50;99.90;;;;;;4974328;28;20031;-47
2023/12/08 00:17:55;;;;;;;5.82;4.13;;;21.40;99.90;;;;;;4974252;28;20031;-48
2023/12/08 00:20:21;;;;;;;6.00;4.47;;;21.40;99.90;;;;;;4974327;28;20034;-47
2023/12/08 00:22:47;;;;;;;3.90;3.05;;;21.40;99.90;;;;;;4974491;28;20023;-48
2023/12/08 00:25:13;;;;;;;5.93;4.00;;;21.40;99.90;;;;;;4974172;28;20126;-47
2023/12/08 00:27:39;;;;;;;5.43;4.32;;;21.40;99.90;;;;;;4974101;28;20102;-48
2023/12/08 00:30:05;;;;;;;4.75;3.83;;;21.40;99.90;;;;;;4974144;28;20023;-48
2023/12/08 00:32:31;;;;;;;6.28;3.97;;;21.40;99.90;;;;;;4972791;28;20027;-48
2023/12/08 00:34:57;;;;;;;4.20;3.33;;;21.40;99.90;;;;;;4973913;28;20093;-48
2023/12/08 00:37:25;;;;;;;4.35;3.95;;;21.40;99.90;;;;;;4974028;28;20034;-47
2023/12/08 00:39:50;;;;;;;;;;;21.40;99.90;;;;;;4974659;28;20027;-47
2023/12/08 00:42:16;;;;;;;4.65;3.72;;;21.30;99.90;;;;;;4973890;28;19906;-48
2023/12/08 00:44:42;;;;;;;4.47;3.40;;;21.30;99.90;;;;;;4972800;28;20031;-48
2023/12/08 00:47:07;;;;;;;3.83;3.22;;;21.30;99.90;;;;;;4972646;28;20034;-48
2023/12/08 00:49:33;;;;;;;5.22;3.35;;;21.30;99.90;;;;;;4973882;28;20538;-48
2023/12/08 00:51:59;;;;;;;5.95;3.70;;;21.30;99.90;;;;;;4973829;28;20023;-49
2023/12/08 00:54:25;;;;;;;4.55;3.20;;;21.30;99.90;;;;;;4973783;28;20376;-48
2023/12/08 00:56:50;;;;;;;4.75;3.80;;;21.30;99.90;;;;;;4973883;28;20101;-48
2023/12/08 00:59:16;;;;;;;5.95;3.78;;;21.30;99.90;;;;;;4973726;28;20074;-47
2023/12/08 01:01:42;;;;;;;4.85;3.67;;;21.30;99.90;;;;;;4974112;28;20050;-49
2023/12/08 01:04:08;;;;;;;3.97;3.28;;;21.30;99.90;;;;;;4973652;28;20042;-48
2023/12/08 01:06:34;;;;;;;4.68;3.40;;;21.30;99.90;;;;;;4973667;28;20026;-48
2023/12/08 01:08:59;;;;;;;3.70;3.05;;;21.30;99.90;;;;;;4973558;28;20035;-47
2023/12/08 01:11:25;;;;;;;4.70;3.53;;;21.30;99.90;;;;;;4972165;28;20078;-47
2023/12/08 01:13:51;;;;;;;5.97;4.07;;;21.20;99.90;;;;;;4973202;28;20038;-47
2023/12/08 01:16:17;;;;;;;5.40;3.72;;;21.20;99.90;;;;;;4973465;28;20058;-47
2023/12/08 01:18:42;;;;;;;4.32;3.42;;;21.20;99.90;;;;;;4973454;28;20031;-48
2023/12/08 01:21:09;;;;;;;4.30;3.22;;;21.20;99.90;;;;;;4973462;28;20031;-47
2023/12/08 01:23:34;;;;;;;3.90;3.10;;;21.20;99.90;;;;;;4973377;28;20027;-47
2023/12/08 01:26:00;;;;;;;4.03;3.17;;;21.20;99.90;;;;;;4972086;28;20033;-48
2023/12/08 01:28:26;;;;;;;4.85;3.40;;;21.20;99.90;;;;;;4973494;28;20070;-47
2023/12/08 01:30:52;;;;;;;3.08;2.75;;;21.20;99.90;;;;;;4973728;28;20141;-48
2023/12/08 01:33:17;;;;;;;3.72;2.70;;;21.20;99.90;;;;;;4973293;28;20058;-47
2023/12/08 01:35:43;;;;;;;4.00;3.33;;;21.20;99.90;;;;;;4973318;28;20035;-47
2023/12/08 01:38:09;;;;;;;3.13;2.80;;;21.20;99.90;;;;;;4973247;28;20023;-47
2023/12/08 01:40:39;;;;;;;3.20;2.90;;;21.20;99.90;;;;;;4973284;28;20169;-48
2023/12/08 01:43:10;;;;;;;3.97;2.83;;;21.20;99.90;;;;;;4973262;28;20023;-48
2023/12/08 01:45:36;;;;;;;3.40;2.90;;;21.20;99.90;;;;;;4973191;28;20026;-48
2023/12/08 01:48:02;;;;;;;3.67;3.10;;;21.20;99.90;;;;;;4973368;28;20023;-48
2023/12/08 01:50:29;;;;;;;4.53;3.20;;;21.20;99.90;;;;;;4973161;28;20480;-48
2023/12/08 01:52:54;;;;;;;4.25;3.03;;;21.20;99.90;;;;;;4973197;28;20031;-47
2023/12/08 01:55:20;;;;;;;3.85;2.67;;;21.10;99.90;;;;;;4971881;28;20062;-48
2023/12/08 01:57:46;;;;;;;4.18;3.10;;;21.10;99.90;;;;;;4973178;28;20027;-48
2023/12/08 02:00:13;;;;;;;4.00;2.95;;;21.10;99.90;;;;;;4973649;28;20042;-47
2023/12/08 02:02:39;;;;;;;5.03;3.23;;;21.10;99.90;;;;;;4971691;28;20058;-47
2023/12/08 02:05:06;;;;;;;3.95;3.10;;;21.10;99.90;;;;;;4971824;28;20023;-48
2023/12/08 02:07:33;;;;;;;3.67;3.03;;;21.10;99.90;;;;;;4973104;28;20023;-47
2023/12/08 02:09:59;;;;;;;3.78;2.60;;;21.10;99.90;;;;;;4973000;28;20102;-47
2023/12/08 02:12:25;;;;;;;3.72;2.58;;;21.10;99.90;;;;;;4972989;28;20107;-47
2023/12/08 02:14:51;;;;;;;5.05;2.83;;;21.10;99.90;;;;;;4972985;28;20039;-48
2023/12/08 02:17:22;;;;;;;5.30;3.28;;;21.10;99.90;;;;;;4973124;28;20023;-47
2023/12/08 02:19:49;;;;;;;3.53;2.83;;;21.10;99.90;;;;;;4973075;28;20027;-47
2023/12/08 02:22:21;;;;;;;4.30;3.03;;;21.10;99.90;;;;;;4972904;28;20070;-47
2023/12/08 02:24:47;;;;;;;3.80;2.83;;;21.10;99.90;;;;;;4973456;28;20034;-47
2023/12/08 02:27:13;;;;;;;3.25;2.67;;;21.10;99.90;;;;;;4975564;28;20027;-47
2023/12/08 02:29:39;;;;;;;4.25;3.17;;;21.10;99.90;;;;;;4976577;28;20050;-47
2023/12/08 02:32:14;;;;;;;4.55;2.70;;;21.10;99.90;;;;;;4976311;28;20055;-47
2023/12/08 02:34:44;;;;;;;5.55;3.47;;;21.00;99.90;;;;;;4975170;28;20047;-47
2023/12/08 02:37:13;;;;;;;2.95;2.55;;;21.00;99.90;;;;;;4976683;28;20014;-47
2023/12/08 02:39:39;;;;;;;2.53;2.30;;;21.00;99.90;;;;;;4976159;28;20479;-47
2023/12/08 02:42:07;;;;;;;6.22;2.88;;;21.00;99.90;;;;;;4976172;28;20041;-47
2023/12/08 02:44:32;;;;;;;4.63;2.80;;;21.00;99.90;;;;;;4976092;28;20022;-47
2023/12/08 02:46:59;;;;;;;3.05;2.60;;;21.00;99.90;;;;;;4976022;28;20368;-48
2023/12/08 02:49:25;;;;;;;3.78;2.83;;;21.00;99.90;;;;;;4974762;28;20038;-47
2023/12/08 02:51:50;;;;;;;4.10;2.97;;;21.00;99.90;;;;;;4974749;28;20122;-47
2023/12/08 02:54:16;;;;;;;4.47;2.60;;;21.00;99.90;;;;;;4975856;28;20063;-47
2023/12/08 02:56:42;;;;;;;4.03;2.53;;;21.00;99.90;;;;;;4976062;28;20030;-47
2023/12/08 02:59:08;;;;;;;4.18;2.38;;;21.00;99.90;;;;;;4974575;28;20387;-47
2023/12/08 03:01:33;;;;;;;3.55;2.67;;;21.00;99.90;;;;;;4976136;28;20039;-48
2023/12/08 03:03:59;;;;;;;3.15;2.63;;;21.00;99.90;;;;;;4975658;28;20043;-47
2023/12/08 03:06:25;;;;;;;3.15;2.58;;;21.00;99.90;;;;;;4975719;28;20019;-48
2023/12/08 03:08:51;;;;;;;2.95;2.30;;;21.00;99.90;;;;;;4975673;28;20019;-48
2023/12/08 03:11:16;;;;;;;2.60;2.30;;;21.00;99.90;;;;;;4975625;28;20029;-47
2023/12/08 03:13:42;;;;;;;3.00;2.00;;;20.90;99.90;;;;;;4975869;28;20050;-48
2023/12/08 03:16:08;;;;;;;3.03;2.33;;;20.90;99.90;;;;;;4975500;28;20073;-48
2023/12/08 03:18:34;;;;;;;2.92;2.45;;;20.90;99.90;;;;;;4975560;28;20027;-48
2023/12/08 03:21:00;;;;;;;3.15;2.28;;;20.90;99.90;;;;;;4975469;28;20480;-48
2023/12/08 03:23:25;;;;;;;2.95;2.20;;;20.90;99.90;;;;;;4975475;28;20519;-48
2023/12/08 03:25:51;;;;;;;3.58;2.30;;;20.90;99.90;;;;;;4975416;28;20027;-47
2023/12/08 03:28:17;;;;;;;3.17;2.33;;;20.90;99.90;;;;;;4975317;28;20019;-47
2023/12/08 03:30:43;;;;;;;2.78;2.10;;;20.90;99.90;;;;;;4975346;28;20031;-48
2023/12/08 03:33:08;;;;;;;3.33;2.47;;;20.90;99.90;;;;;;4973730;28;20062;-48
2023/12/08 03:35:34;;;;;;;2.58;2.30;;;20.80;99.90;;;;;;4974967;28;20106;-47
2023/12/08 03:38:00;;;;;;;3.35;2.50;;;20.80;99.90;;;;;;4975190;28;20026;-47
2023/12/08 03:40:25;;;;;;;3.33;2.17;;;20.80;99.90;;;;;;4975052;28;20475;-48
2023/12/08 03:42:51;;;;;;;4.20;2.47;;;20.80;99.90;;;;;;4974974;28;20403;-48
2023/12/08 03:45:17;;;;;;;2.95;2.05;;;20.80;99.90;;;;;;4975191;28;20081;-48
2023/12/08 03:47:43;;;;;;;2.83;2.28;;;20.80;99.90;;;;;;4975028;28;20094;-48
2023/12/08 03:50:09;;;;;;;3.88;2.60;;;20.80;99.90;;;;;;4975025;28;20027;-48
2023/12/08 03:52:35;;;;;;;3.60;2.00;;;20.80;99.90;;;;;;4974881;28;20399;-48
2023/12/08 03:55:00;;;;;;;4.00;2.13;;;20.80;99.90;;;;;;4974696;28;20031;-48
2023/12/08 03:57:26;;;;;;;2.10;1.73;;;20.80;99.90;;;;;;4974700;28;20483;-48
2023/12/08 03:59:52;;;;;;;2.60;2.10;;;20.80;99.90;;;;;;4974756;28;20098;-48
2023/12/08 04:02:18;;;;;;;3.92;2.17;;;20.80;99.90;;;;;;4975153;28;20491;-48
2023/12/08 04:04:43;;;;;;;2.92;2.17;;;20.80;99.90;;;;;;4974585;28;20038;-48
2023/12/08 04:07:09;;;;;;;4.80;2.20;;;20.80;99.90;;;;;;4974625;28;20081;-48
2023/12/08 04:09:35;;;;;;;2.15;1.95;;;20.80;99.90;;;;;;4974578;28;20031;-48
2023/12/08 04:12:01;;;;;;;2.67;1.95;;;20.70;99.90;;;;;;4974469;28;20102;-48
2023/12/08 04:14:27;;;;;;;3.75;2.17;;;20.80;99.90;;;;;;4974269;28;20047;-48
2023/12/08 04:16:53;;;;;;;4.30;2.80;;;20.70;99.90;;;;;;4973196;28;20027;-48
2023/12/08 04:19:19;;;;;;;2.17;1.90;;;20.80;99.90;;;;;;4974636;28;20030;-48
2023/12/08 04:21:45;;;;;;;2.67;2.00;;;20.70;99.90;;;;;;4974554;28;20093;-47
2023/12/08 04:24:11;;;;;;;2.70;2.10;;;20.70;99.90;;;;;;4974229;28;20030;-47
2023/12/08 04:26:36;;;;;;;2.80;2.08;;;20.70;99.90;;;;;;4974247;28;20027;-47
2023/12/08 04:29:02;;;;;;;3.08;1.88;;;20.70;99.90;;;;;;4974153;28;20058;-47
2023/12/08 04:31:28;;;;;;;2.55;1.90;;;20.70;99.90;;;;;;4974088;28;20031;-47
2023/12/08 04:33:54;;;;;;;2.00;1.73;;;20.80;99.90;;;;;;4971965;28;20030;-47
2023/12/08 04:36:20;;;;;;;4.47;2.33;;;20.80;99.90;;;;;;4972446;28;20031;-46
2023/12/08 04:38:45;;;;;;;3.63;2.10;;;20.70;99.90;;;;;;4971898;28;20053;-48
2023/12/08 04:41:11;;;;;;;2.55;2.28;;;20.70;99.90;;;;;;4971989;28;20027;-48
2023/12/08 04:43:37;;;;;;;2.17;1.83;;;20.70;99.90;;;;;;4973132;28;20082;-47
2023/12/08 04:46:03;;;;;;;4.53;1.88;;;20.70;99.90;;;;;;4974047;28;20062;-47
2023/12/08 04:48:29;;;;;;;2.15;1.80;;;20.70;99.90;;;;;;4973209;28;20023;-47
2023/12/08 04:50:55;;;;;;;2.78;1.77;;;20.70;99.90;;;;;;4972675;28;20579;-47
2023/12/08 04:53:20;;;;;;;3.22;1.60;;;20.70;99.90;;;;;;4973280;28;20035;-47
2023/12/08 04:55:46;;;;;;;2.47;2.00;;;20.70;99.90;;;;;;4972350;28;20105;-47
2023/12/08 04:58:12;;;;;;;2.47;1.85;;;20.70;99.90;;;;;;4971548;28;20471;-48
2023/12/08 05:00:38;;;;;;;2.67;1.60;;;20.70;99.90;;;;;;4973139;28;20029;-48
2023/12/08 05:03:04;;;;;;;1.92;1.70;;;20.70;99.90;;;;;;4973074;28;20383;-47
2023/12/08 05:05:30;;;;;;;2.22;1.92;;;20.70;99.90;;;;;;4971996;28;20073;-47
2023/12/08 05:07:55;;;;;;;2.60;1.77;;;20.70;99.90;;;;;;4971599;28;20034;-47
2023/12/08 05:10:21;;;;;;;2.60;2.10;;;20.70;99.90;;;;;;4971953;28;20033;-48
2023/12/08 05:12:47;;;;;;;2.33;1.98;;;20.70;99.90;;;;;;4972840;28;20435;-47
2023/12/08 05:15:13;;;;;;;2.30;1.70;;;20.70;99.90;;;;;;4971485;28;20071;-47
2023/12/08 05:17:39;;;;;;;2.15;1.80;;;20.70;99.90;;;;;;4987143;28;20061;-47
2023/12/08 05:20:06;;;;;;;2.95;1.90;;;20.70;99.90;;;;;;4972089;28;20439;-47
2023/12/08 05:22:32;;;;;;;2.38;1.85;;;20.70;99.90;;;;;;4972141;28;20495;-47
2023/12/08 05:24:57;;;;;;;1.48;1.38;;;20.60;99.90;;;;;;4971347;28;20054;-47
2023/12/08 05:27:23;;;;;;;3.08;2.15;;;20.60;99.90;;;;;;4971677;28;20102;-47
2023/12/08 05:29:49;;;;;;;1.92;1.70;;;20.60;99.90;;;;;;4971925;28;20078;-47
2023/12/08 05:32:15;;;;;;;2.25;2.03;;;20.60;99.90;;;;;;4970381;28;20039;-47
2023/12/08 05:34:40;;;;;;;2.25;1.45;;;20.60;99.90;;;;;;4971117;28;20218;-47
2023/12/08 05:37:06;;;;;;;1.58;1.48;;;20.60;99.90;;;;;;4971720;28;20034;-47
2023/12/08 05:39:32;;;;;;;3.17;1.70;;;20.70;99.90;;;;;;4972336;28;20027;-47
2023/12/08 05:41:58;;;;;;;3.05;1.77;;;20.60;99.90;;;;;;4971489;28;20018;-47
2023/12/08 05:44:23;;;;;;;2.15;1.80;;;20.60;99.90;;;;;;4971724;28;20082;-48
2023/12/08 05:46:49;;;;;;;1.88;1.50;;;20.60;99.90;;;;;;4970779;28;20492;-48
2023/12/08 05:49:17;;;;;;;2.45;1.63;;;20.60;99.90;;;;;;4972692;28;20145;-48
2023/12/08 05:51:43;;;;;;;2.53;1.67;;;20.60;99.90;;;;;;4971114;28;20026;-48
2023/12/08 05:54:09;;;;;;;1.95;1.67;;;20.60;99.90;;;;;;4971265;28;20035;-48
2023/12/08 05:56:35;;;;;;;3.25;2.10;;;20.60;99.90;;;;;;4972280;28;20090;-47
2023/12/08 05:59:02;;;;;;;3.42;1.70;;;20.60;99.90;;;;;;4972600;28;20031;-48
2023/12/08 06:01:28;;;;;;;2.70;1.50;;;20.60;99.90;;;;;;4973504;28;20086;-48
2023/12/08 06:03:54;;;;;;;1.70;1.50;;;20.60;99.90;;;;;;4975444;28;20470;-49
2023/12/08 06:06:21;;;;;;;1.65;1.35;;;20.60;99.90;;;;;;4976327;28;20038;-47
2023/12/08 06:08:47;;;;;;;2.00;1.58;;;20.60;99.90;;;;;;4975156;28;20077;-47
2023/12/08 06:11:12;;;;;;;2.80;1.90;;;20.60;99.90;;;;;;4975087;28;20431;-48
2023/12/08 06:13:38;;;;;;;2.00;1.60;;;20.60;99.90;;;;;;4975275;28;20113;-48
2023/12/08 06:16:05;;;;;;;2.05;1.85;;;20.60;99.90;;;;;;4975862;28;20367;-47
2023/12/08 06:18:30;;;;;;;3.17;1.55;;;20.60;99.90;;;;;;4974419;28;20045;-47
2023/12/08 06:20:58;;;;;;;2.35;1.45;;;20.60;99.90;;;;;;4975785;28;20027;-47
2023/12/08 06:23:23;;;;;;;1.80;1.55;;;20.60;99.90;;;;;;4975152;28;20429;-47
2023/12/08 06:25:49;;;;;;;1.83;1.55;;;20.60;99.90;;;;;;4975000;28;20031;-47
2023/12/08 06:28:15;;;;;;;2.28;1.60;;;20.60;99.90;;;;;;4974330;28;20359;-47
2023/12/08 06:30:41;;;;;;;2.00;1.60;;;20.60;99.90;;;;;;4974442;28;20027;-48
2023/12/08 06:33:07;;;;;;;2.65;1.80;;;20.60;99.90;;;;;;4975755;28;20467;-47
2023/12/08 06:35:32;;;;;;;4.70;2.08;;;20.60;99.90;;;;;;4974442;28;20601;-47
2023/12/08 06:37:58;;;;;;;4.18;1.80;;;20.60;99.90;;;;;;4974399;28;20108;-47
2023/12/08 06:40:24;;;;;;;3.88;2.17;;;20.60;99.90;;;;;;4973665;28;20037;-48
2023/12/08 06:42:50;;;;;;;4.80;1.55;;;20.60;99.90;;;;;;4975673;28;20023;-47
2023/12/08 06:45:15;;;;;;;3.03;1.60;;;20.60;99.90;;;;;;4974354;28;20034;-47
2023/12/08 06:47:41;;;;;;;5.20;2.20;;;20.60;99.90;;;;;;4974716;28;20026;-47
2023/12/08 06:50:07;;;;;;;3.00;1.65;;;20.60;99.90;;;;;;4974613;28;20157;-47
2023/12/08 06:52:33;;;;;;;2.05;1.52;;;20.60;99.90;;;;;;4975062;28;20103;-47
2023/12/08 06:54:59;;;;;;;2.10;1.45;;;20.60;99.90;;;;;;4972943;28;20491;-47
2023/12/08 06:57:24;;;;;;;6.50;1.55;;;20.60;99.90;;;;;;4974522;28;20041;-47
2023/12/08 06:59:52;;;;;;;2.20;1.63;;;20.60;99.90;;;;;;4975599;28;20033;-46
2023/12/08 07:02:18;;;;;;;4.28;2.20;;;20.60;99.90;;;;;;4974028;28;20136;-46
2023/12/08 07:04:43;;;;;;;1.88;1.48;;;20.60;99.90;;;;;;4973610;28;20500;-47
2023/12/08 07:07:09;;;;;;;2.53;1.70;;;20.60;99.90;;;;;;4974124;28;20034;-46
2023/12/08 07:09:35;;;;;;;4.25;1.90;;;20.60;99.90;;;;;;4974680;28;20031;-47
2023/12/08 07:12:01;;;;;;;2.00;1.52;;;20.60;99.90;;;;;;4973009;28;20030;-47
2023/12/08 07:14:26;;;;;;;4.35;1.70;;;20.60;99.90;;;;;;4974328;28;20502;-47
2023/12/08 07:16:52;;;;;;;9.88;1.92;;;20.60;99.90;;;;;;4974035;28;20058;-47
2023/12/08 07:19:18;;;;;;;3.38;1.92;;;20.60;99.90;;;;;;4974772;28;20387;-47
2023/12/08 07:21:44;;;;;;;4.32;1.48;;;20.60;99.90;;;;;;4974283;28;20023;-47
2023/12/08 07:24:11;;;;;;;2.50;1.80;;;20.50;99.90;;;;;;4974391;28;20023;-48
2023/12/08 07:26:37;;;;;;;3.42;1.67;;;20.60;99.90;;;;;;4973873;28;20014;-47
2023/12/08 07:29:03;;;;;;;2.35;1.40;;;20.60;99.90;;;;;;4974565;28;20122;-47
2023/12/08 07:31:29;;;;;;;4.38;1.65;;;20.60;99.90;;;;;;4974488;28;20027;-48
2023/12/08 07:33:56;;;;;;;2.92;1.50;;;20.60;99.90;;;;;;4973494;28;20118;-46
2023/12/08 07:36:21;;;;;;;3.53;2.00;;;20.60;99.90;;;;;;4974639;28;20034;-47
2023/12/08 07:38:47;;;;;;;2.53;1.50;;;20.60;99.90;;;;;;4974660;28;20023;-48
2023/12/08 07:41:13;;;;;;;3.28;1.50;;;20.60;99.90;;;;;;4973089;28;20034;-47
2023/12/08 07:43:39;;;;;;;3.92;1.52;;;20.60;99.90;;;;;;4973487;28;20050;-47
2023/12/08 07:46:07;;;;;;;3.17;1.52;;;20.60;99.90;;;;;;4974279;28;20073;-48
2023/12/08 07:48:33;;;;;;;2.15;1.20;;;20.60;99.90;;;;;;4973976;28;20030;-48
2023/12/08 07:50:59;;;;;;;2.47;1.65;;;20.50;99.90;;;;;;4974083;28;20030;-46
2023/12/08 07:53:24;;;;;;;2.25;1.38;;;20.60;99.90;;;;;;4973654;28;20039;-46
2023/12/08 07:55:50;;;;;;;4.32;2.08;;;20.60;99.90;;;;;;4974062;28;20105;-48
2023/12/08 07:58:16;;;;;;;2.60;1.60;;;20.60;99.90;;;;;;4973273;28;20509;-47
2023/12/08 08:00:42;;;;;;;3.55;1.50;;;20.60;99.90;;;;;;4971865;28;20049;-47
2023/12/08 08:03:08;;;;;;;3.22;1.45;;;20.60;99.90;;;;;;4972554;28;20034;-48
2023/12/08 08:05:35;;;;;;;2.78;2.30;;;20.60;99.90;;;;;;4973815;28;20081;-47
2023/12/08 08:08:04;;;;;;;4.05;1.60;;;20.60;99.90;;;;;;4973320;28;20054;-47
2023/12/08 08:10:30;;;;;;;3.53;1.55;;;20.60;99.90;;;;;;4972877;28;20173;-48
2023/12/08 08:12:56;;;;;;;5.78;1.65;;;20.60;99.90;;;;;;4973700;28;20526;-48
2023/12/08 08:15:21;;;;;;;3.03;1.77;;;20.60;99.90;;;;;;4974105;28;20043;-48
2023/12/08 08:17:48;;;;;;;2.05;1.60;;;20.60;99.90;;;;;;4972889;28;20029;-47
2023/12/08 08:20:14;;;;;;;2.13;1.30;;;20.60;99.90;;;;;;4972871;28;20037;-47
2023/12/08 08:22:39;;;;;;;2.20;1.35;;;20.60;99.90;;;;;;4971125;28;20023;-48
2023/12/08 08:25:06;;;;;;;4.60;1.77;;;20.60;99.90;;;;;;4973832;28;20037;-48
2023/12/08 08:27:33;;;;;;;4.25;1.75;;;20.60;99.90;;;;;;4972736;28;20015;-47
2023/12/08 08:29:59;;;;;;;3.83;1.65;;;20.60;99.90;;;;;;4973822;28;20392;-47
2023/12/08 08:32:25;;;;;;;3.13;1.70;;;20.60;99.90;;;;;;4973420;28;20434;-47
2023/12/08 08:34:52;;;;;;;2.40;1.50;;;20.60;99.90;;;;;;4972712;28;20039;-47
2023/12/08 08:37:18;;;;;;;1.88;1.40;;;20.60;99.90;;;;;;4972398;28;20050;-47
2023/12/08 08:39:43;;;;;;;2.88;1.52;;;20.60;99.90;;;;;;4971945;28;20069;-47
2023/12/08 08:42:09;;;;;;;2.60;1.42;;;20.60;99.90;;;;;;4973205;28;20054;-47
2023/12/08 08:44:36;;;;;;;2.42;1.58;;;20.70;99.90;;;;;;4972155;28;20030;-47
2023/12/08 08:47:02;;;;;;;1.80;1.37;;;20.70;99.90;;;;;;4972339;28;20041;-47
2023/12/08 08:49:28;;;;;;;2.63;1.67;;;20.70;99.90;;;;;;4973089;28;20029;-47
2023/12/08 08:51:54;;;;;;;2.15;1.30;;;20.70;99.90;;;;;;4972088;28;20031;-47
2023/12/08 08:54:20;;;;;;;1.70;1.40;;;20.70;99.90;;;;;;4972540;28;20066;-48
2023/12/08 08:56:46;;;;;;;2.05;1.55;;;20.70;99.90;;;;;;4972385;28;20030;-46
2023/12/08 08:59:11;;;;;;;4.18;1.70;;;20.80;99.90;;;;;;4973156;28;20049;-46
2023/12/08 09:01:38;;;;;;;2.03;1.42;;;20.80;99.90;;;;;;4972684;28;20042;-47
2023/12/08 09:04:04;;;;;;;3.47;1.75;;;20.80;99.90;;;;;;4971620;28;20035;-46
2023/12/08 09:06:31;;;;;;;3.22;2.13;;;20.80;99.90;;;;;;4973342;28;20026;-47
2023/12/08 09:08:56;;;;;;;2.67;1.70;;;20.90;99.90;;;;;;4972688;28;20109;-46
2023/12/08 09:11:22;;;;;;;2.55;1.38;;;20.90;99.90;;;;;;4972110;28;20117;-47
2023/12/08 09:13:48;;;;;;;2.45;1.45;;;20.90;99.90;;;;;;4970811;28;20030;-47
2023/12/08 09:16:14;;;;;;;3.60;1.63;;;21.00;99.90;;;;;;4972612;28;20035;-47
2023/12/08 09:18:40;;;;;;;3.28;1.48;;;21.00;99.90;;;;;;4973293;28;20025;-46
2023/12/08 09:21:05;;;;;;;1.65;1.40;;;21.00;99.90;;;;;;4972026;28;20038;-47
2023/12/08 09:23:31;;;;;;;2.15;1.30;;;21.10;99.90;;;;;;4972289;28;20023;-47
2023/12/08 09:25:59;;;;;;;2.08;1.50;;;21.10;99.90;;;;;;4972610;28;20034;-47
2023/12/08 09:28:25;;;;;;;1.80;1.60;;;21.20;99.90;;;;;;4972633;28;20381;-46
2023/12/08 09:30:50;;;;;;;3.03;1.83;;;21.10;99.90;;;;;;4971503;28;20039;-47
2023/12/08 09:33:16;;;;;;;2.72;1.92;;;21.20;99.90;;;;;;4972726;28;20031;-47
2023/12/08 09:35:42;;;;;;;2.47;1.40;;;21.20;99.90;;;;;;4976485;28;20065;-46
2023/12/08 09:38:08;;;;;;;2.38;1.90;;;21.30;99.90;;;;;;4975847;28;20102;-46
2023/12/08 09:40:37;;;;;;;2.25;1.70;;;21.30;99.90;;;;;;4976184;28;20030;-46
2023/12/08 09:43:25;;;;;;;2.35;1.60;;;21.30;99.90;;;;;;4976583;28;20061;-46
2023/12/08 09:45:54;;;;;;;2.88;1.95;;;21.30;99.90;;;;;;4975897;28;20034;-47
2023/12/08 09:48:23;;;;;;;2.47;1.70;;;21.40;99.90;;;;;;4975803;28;20050;-46
2023/12/08 09:50:51;;;;;;;2.33;1.75;;;21.40;99.90;;;;;;4975724;28;20054;-46
2023/12/08 09:53:17;;;;;;;;;;;21.50;99.90;;;;;;4976557;28;20031;-47
2023/12/08 09:55:46;;;;;;;3.60;2.05;;;21.60;99.90;;;;;;4976374;28;19992;-46
2023/12/08 09:58:13;;;;;;;2.03;1.63;;;21.60;99.90;;;;;;4974865;28;20103;-46
2023/12/08 10:00:39;;;;;;;2.72;1.70;;;21.60;99.90;;;;;;4972438;28;20026;-48
2023/12/08 10:03:05;;;;;;;4.63;2.15;;;21.70;99.90;;;;;;4976240;28;20497;-47
2023/12/08 10:05:30;;;;;;;3.97;1.98;;;21.70;99.90;;;;;;4975104;28;20123;-47
2023/12/08 10:07:58;;;;;;;2.70;1.70;;;21.70;99.90;;;;;;4975370;28;20031;-49
2023/12/08 10:10:24;;;;;;;3.95;1.83;;;21.80;99.90;;;;;;4975645;28;20030;-47
2023/12/08 10:12:50;;;;;;;4.32;1.85;;;21.80;99.90;;;;;;4976316;28;20126;-47
2023/12/08 10:15:16;;;;;;;2.88;1.85;;;21.90;99.90;;;;;;4974821;28;20031;-47
2023/12/08 10:17:50;;;;;;;5.63;2.15;;;21.90;99.90;;;;;;4974837;28;20029;-47
2023/12/08 10:20:17;;;;;;;3.20;1.90;;;22.00;99.90;;;;;;4975812;28;20031;-47
2023/12/08 10:22:52;;;;;;;2.97;1.87;;;22.10;99.90;;;;;;4975503;28;20098;-47
2023/12/08 10:25:23;;;;;;;2.85;1.92;;;22.10;99.90;;;;;;4973472;28;20041;-46
2023/12/08 10:27:51;;;;;;;3.08;1.85;;;22.20;99.90;;;;;;4976025;28;20023;-46
2023/12/08 10:30:17;;;;;;;3.03;1.60;;;22.30;99.90;;;;;;4976115;28;20387;-47
2023/12/08 10:32:44;;;;;;;3.28;2.03;;;22.30;99.90;;;;;;4974809;28;20102;-47
2023/12/08 10:35:11;;;;;;;6.97;2.22;;;22.40;99.90;;;;;;4974900;28;20031;-47
2023/12/08 10:37:38;;;;;;;2.70;1.80;;;22.40;99.90;;;;;;4975300;28;20399;-47
2023/12/08 10:40:10;;;;;;;4.55;2.75;;;22.50;99.90;;;;;;4974847;28;20030;-47
2023/12/08 10:42:36;;;;;;;4.78;2.28;;;22.50;99.90;;;;;;4974923;28;20049;-47
2023/12/08 10:45:10;;;;;;;2.95;2.30;;;22.60;99.90;;;;;;4974081;28;20031;-47
2023/12/08 10:47:40;;;;;;;6.88;2.65;;;22.60;99.90;;;;;;4975054;28;20106;-46
2023/12/08 10:50:09;;;;;;;3.85;2.33;;;22.70;99.90;;;;;;4974911;28;20074;-47
2023/12/08 10:52:38;;;;;;;3.97;2.67;;;22.70;99.90;;;;;;4974480;28;20018;-47
2023/12/08 10:55:08;;;;;;;3.17;2.10;;;22.70;99.90;;;;;;4975004;28;20042;-48
2023/12/08 10:57:35;;;;;;;3.72;2.10;;;22.80;99.90;;;;;;4975636;28;20047;-47
2023/12/08 11:00:16;;;;;;;4.68;2.40;;;22.80;99.90;;;;;;4973168;28;20061;-47
2023/12/08 11:02:47;;;;;;;4.53;2.90;;;22.80;99.90;;;;;;4975695;28;20074;-49
2023/12/08 11:05:37;;;;;;;4.32;2.60;;;22.90;99.90;;;;;;4974926;28;20042;-48
2023/12/08 11:08:06;;;;;;;5.50;2.38;;;22.90;99.90;;;;;;4975703;28;20042;-49
2023/12/08 11:10:37;;;;;;;3.80;2.20;;;22.90;99.90;;;;;;4975589;28;20034;-48
2023/12/08 11:13:33;;;;;;;4.10;2.30;;;23.00;99.90;;;;;;4974316;28;20027;-48
2023/12/08 11:16:05;;;;;;;7.10;2.60;;;23.00;99.90;;;;;;4975173;28;20053;-48
2023/12/08 11:18:35;;;;;;;5.07;2.58;;;23.10;99.90;;;;;;4975447;28;20031;-48
2023/12/08 11:21:06;;;;;;;4.53;2.45;;;23.10;99.90;;;;;;4975234;28;20549;-48
2023/12/08 11:23:33;;;;;;;11.48;2.85;;;23.10;99.90;;;;;;4975327;28;20035;-48
2023/12/08 11:26:14;;;;;;;4.60;2.40;;;23.10;99.90;;;;;;4975331;28;20098;-48
2023/12/08 11:29:00;;;;;;;4.68;2.50;;;23.10;99.90;;;;;;4975102;28;20431;-48
2023/12/08 11:32:08;;;;;;;5.03;2.20;;;23.20;99.90;;;;;;4975287;28;20500;-48
2023/12/08 11:34:42;;;;;;;3.83;2.13;;;23.20;99.90;;;;;;4975152;28;20034;-48
2023/12/08 11:37:08;;;;;;;8.70;2.38;;;23.20;99.90;;;;;;4974344;28;20019;-49
2023/12/08 11:39:34;;;;;;;6.32;2.20;;;23.20;99.90;;;;;;4975097;28;20027;-46
2023/12/08 11:42:03;;;;;;;5.45;2.40;;;23.30;99.90;;;;;;4975070;28;20834;-47
2023/12/08 11:44:33;;;;;;;5.50;2.80;;;23.30;99.90;;;;;;4975060;28;20113;-47
2023/12/08 11:47:02;;;;;;;3.08;1.90;;;23.30;99.90;;;;;;4974777;28;20027;-47
2023/12/08 11:49:29;;;;;;;3.72;2.50;;;23.30;99.90;;;;;;4974945;28;20472;-47
2023/12/08 11:52:27;;;;;;;4.85;1.95;;;23.40;99.90;;;;;;4974854;28;20027;-47
2023/12/08 11:55:07;;;;;;;5.13;2.65;;;23.40;99.90;;;;;;4974718;28;20062;-47
2023/12/08 11:57:36;;;;;;;8.85;2.35;;;23.40;99.90;;;;;;4974464;28;20149;-47
2023/12/08 12:00:06;;;;;;;5.00;2.45;;;23.40;99.90;;;;;;4974739;28;20038;-47
2023/12/08 12:02:32;;;;;;;5.07;2.42;;;23.50;99.90;;;;;;4974506;28;20510;-47
2023/12/08 12:04:58;;;;;;;4.82;2.42;;;23.50;99.90;;;;;;4974770;28;20027;-48
2023/12/08 12:07:24;;;;;;;4.78;2.35;;;23.50;99.90;;;;;;4974485;28;20022;-47
2023/12/08 12:09:50;;;;;;;3.15;1.95;;;23.50;99.90;;;;;;4974464;28;20569;-47
2023/12/08 12:12:25;;;;;;;3.97;1.83;;;23.60;99.90;;;;;;4974347;28;20074;-45
2023/12/08 12:14:55;;;;;;;5.40;2.28;;;23.60;99.90;;;;;;4974427;28;20043;-47
2023/12/08 12:17:24;;;;;;;4.07;2.28;;;23.60;99.90;;;;;;4973282;28;20069;-47
2023/12/08 12:19:51;;;;;;;6.57;2.75;;;23.60;99.90;;;;;;4974213;28;20483;-47
2023/12/08 12:22:18;;;;;;;5.57;2.35;;;23.70;99.90;;;;;;4974169;28;20027;-47
2023/12/08 12:24:44;;;;;;;3.33;2.30;;;23.70;99.90;;;;;;4974277;28;20038;-47
2023/12/08 12:27:10;;;;;;;3.55;2.10;;;23.70;99.90;;;;;;4974285;28;20026;-47
2023/12/08 12:29:36;;;;;;;4.55;2.72;;;23.80;99.90;;;;;;4972869;28;20069;-47
2023/12/08 12:32:07;;;;;;;4.85;2.50;;;23.80;99.90;;;;;;4974183;28;20105;-47
2023/12/08 12:34:39;;;;;;;5.97;2.35;;;23.80;99.90;;;;;;4972491;28;20062;-47
2023/12/08 12:37:06;;;;;;;4.75;2.35;;;23.80;99.90;;;;;;4974018;28;20081;-47
2023/12/08 12:39:34;;;;;;;5.45;2.28;;;23.80;99.90;;;;;;4973875;28;20041;-49
2023/12/08 12:42:01;;;;;;;2.92;2.13;;;23.90;99.90;;;;;;4974041;28;20057;-47
2023/12/08 12:44:46;;;;;;;5.40;2.25;;;23.90;99.90;;;;;;4973855;28;20066;-48
2023/12/08 12:47:30;;;;;;;4.25;1.70;;;23.90;99.90;;;;;;4973739;28;20026;-48